Time;durP1;ratioP1;P1;durP2;ratioP2;P2;SDS_P1;SDS_P2;PMS_P1;PMS_P2;Temp;Humidity;BMP_temperature;BMP_pressure;BME280_temperature;BME280_humidity;BME280_pressure;Samples;Min_cycle;Max_cycle;Signal;HPM_P1;HPM_P2
2020/12/05 00:00:35;;;;;;;28.67;16.58;;;;;;;;;;5055861;28;20075;-62
2020/12/05 00:03:01;;;;;;;23.88;14.43;;;;;;;;;;5055921;28;20024;-62
2020/12/05 00:05:27;;;;;;;31.95;16.35;;;;;;;;;;5053918;28;20048;-62
2020/12/05 00:07:52;;;;;;;22.70;13.50;;;;;;;;;;5055722;28;20586;-62
2020/12/05 00:10:17;;;;;;;30.52;14.38;;;;;;;;;;5055574;28;20453;-62
2020/12/05 00:12:43;;;;;;;33.90;14.93;;;;;;;;;;5055523;28;20020;-62
2020/12/05 00:15:08;;;;;;;33.83;15.73;;;;;;;;;;5055449;28;20029;-62
2020/12/05 00:17:34;;;;;;;31.17;14.40;;;;;;;;;;5055461;28;20577;-63
2020/12/05 00:19:59;;;;;;;22.70;12.10;;;;;;;;;;5054173;28;20071;-62
2020/12/05 00:22:25;;;;;;;23.52;12.23;;;;;;;;;;5055484;28;20021;-62
2020/12/05 00:24:50;;;;;;;26.42;13.48;;;;;;;;;;5053999;28;20056;-63
2020/12/05 00:27:20;;;;;;;27.50;13.35;;;;;;;;;;5055252;28;20095;-62
2020/12/05 00:29:48;;;;;;;22.38;13.55;;;;;;;;;;5055437;28;20082;-62
2020/12/05 00:32:14;;;;;;;28.90;14.20;;;;;;;;;;5055135;28;20027;-63
2020/12/05 00:34:43;;;;;;;27.08;12.80;;;;;;;;;;5053849;28;20059;-63
2020/12/05 00:37:08;;;;;;;20.98;11.80;;;;;;;;;;5055084;28;20028;-63
2020/12/05 00:39:34;;;;;;;21.38;11.82;;;;;;;;;;5055025;28;20029;-63
2020/12/05 00:42:00;;;;;;;14.98;9.85;;;;;;;;;;5053807;28;20439;-63
2020/12/05 00:44:25;;;;;;;20.98;10.57;;;;;;;;;;5054787;28;20025;-63
2020/12/05 00:46:50;;;;;;;20.77;11.45;;;;;;;;;;5055217;28;20016;-63
2020/12/05 00:49:16;;;;;;;21.73;11.57;;;;;;;;;;5053530;28;20064;-63
2020/12/05 00:51:46;;;;;;;24.45;12.02;;;;;;;;;;5054916;28;20102;-63
2020/12/05 00:54:11;;;;;;;24.77;13.65;;;;;;;;;;5053453;28;20151;-63
2020/12/05 00:56:37;;;;;;;25.95;13.20;;;;;;;;;;5053542;28;20048;-64
2020/12/05 00:59:02;;;;;;;24.05;12.52;;;;;;;;;;5054639;28;20119;-64
2020/12/05 01:01:28;;;;;;;20.15;11.85;;;;;;;;;;5054657;28;20025;-64
2020/12/05 01:03:53;;;;;;;27.73;13.77;;;;;;;;;;5054358;28;20048;-64
2020/12/05 01:06:20;;;;;;;17.65;11.43;;;;;;;;;;5053378;28;20049;-64
2020/12/05 01:08:46;;;;;;;14.65;9.02;;;;;;;;;;5054706;28;20422;-64
2020/12/05 01:11:15;;;;;;;15.10;9.68;;;;;;;;;;5054484;28;20027;-64
2020/12/05 01:13:41;;;;;;;18.10;10.43;;;;;;;;;;5054572;28;20047;-64
2020/12/05 01:16:09;;;;;;;17.20;8.88;;;;;;;;;;5054392;28;20025;-64
2020/12/05 01:18:35;;;;;;;14.57;8.82;;;;;;;;;;5053584;28;20033;-63
2020/12/05 01:21:00;;;;;;;20.38;10.27;;;;;;;;;;5054372;28;20078;-63
2020/12/05 01:23:26;;;;;;;19.02;10.48;;;;;;;;;;5053098;28;20036;-64
2020/12/05 01:25:51;;;;;;;14.05;9.35;;;;;;;;;;5054252;28;20108;-63
2020/12/05 01:28:17;;;;;;;15.25;9.05;;;;;;;;;;5054241;28;20032;-64
2020/12/05 01:30:42;;;;;;;12.65;9.00;;;;;;;;;;5052977;28;20493;-63
2020/12/05 01:33:08;;;;;;;17.50;9.93;;;;;;;;;;5054111;28;20037;-62
2020/12/05 01:35:33;;;;;;;13.63;8.75;;;;;;;;;;5054002;28;20039;-62
2020/12/05 01:37:59;;;;;;;10.82;7.93;;;;;;;;;;5053902;28;20371;-62
2020/12/05 01:40:24;;;;;;;12.70;7.78;;;;;;;;;;5053622;28;20033;-64
2020/12/05 01:42:52;;;;;;;13.30;8.27;;;;;;;;;;5053361;28;20119;-63
2020/12/05 01:45:18;;;;;;;12.73;8.57;;;;;;;;;;5053918;28;20094;-63
2020/12/05 01:47:43;;;;;;;11.80;7.68;;;;;;;;;;5053808;28;20045;-63
2020/12/05 01:50:09;;;;;;;8.85;7.63;;;;;;;;;;5052512;28;20013;-63
2020/12/05 01:52:36;;;;;;;9.10;7.10;;;;;;;;;;5053854;28;20044;-63
2020/12/05 01:55:03;;;;;;;9.98;6.80;;;;;;;;;;5053726;28;20031;-63
2020/12/05 01:57:28;;;;;;;8.93;6.78;;;;;;;;;;5053709;28;20029;-63
2020/12/05 01:59:54;;;;;;;9.98;7.57;;;;;;;;;;5053549;28;20040;-63
2020/12/05 02:02:19;;;;;;;9.55;7.15;;;;;;;;;;5053554;28;20067;-63
2020/12/05 02:04:48;;;;;;;8.45;6.82;;;;;;;;;;5053317;28;20040;-63
2020/12/05 02:07:46;;;;;;;8.57;7.43;;;;;;;;;;5052134;28;20036;-63
2020/12/05 02:10:15;;;;;;;8.23;6.78;;;;;;;;;;5030046;28;20037;-63
2020/12/05 02:12:47;;;;;;;8.65;6.95;;;;;;;;;;5053422;28;20059;-63
2020/12/05 02:15:13;;;;;;;9.88;7.65;;;;;;;;;;5053449;28;20116;-63
2020/12/05 02:17:43;;;;;;;8.18;7.18;;;;;;;;;;5053321;28;20013;-63
2020/12/05 02:20:09;;;;;;;8.40;7.07;;;;;;;;;;5053288;28;20029;-63
2020/12/05 02:22:38;;;;;;;7.93;6.45;;;;;;;;;;5053315;28;20255;-62
2020/12/05 02:25:04;;;;;;;9.23;7.72;;;;;;;;;;5053314;28;20025;-62
2020/12/05 02:27:30;;;;;;;9.70;6.90;;;;;;;;;;5052068;28;20027;-62
2020/12/05 02:29:56;;;;;;;8.68;6.80;;;;;;;;;;5053039;28;20032;-62
2020/12/05 02:32:21;;;;;;;7.28;6.53;;;;;;;;;;5053088;28;20171;-62
2020/12/05 02:34:47;;;;;;;7.88;6.82;;;;;;;;;;5052759;28;20033;-62
2020/12/05 02:37:13;;;;;;;8.10;7.07;;;;;;;;;;5053207;28;20518;-62
2020/12/05 02:39:42;;;;;;;7.45;6.65;;;;;;;;;;5053003;28;20186;-62
2020/12/05 02:42:11;;;;;;;9.10;7.15;;;;;;;;;;5052798;28;20486;-62
2020/12/05 02:44:43;;;;;;;7.88;6.60;;;;;;;;;;5052974;28;20032;-62
2020/12/05 02:47:09;;;;;;;9.90;7.55;;;;;;;;;;5051974;28;20032;-62
2020/12/05 02:49:34;;;;;;;8.82;7.43;;;;;;;;;;5052902;28;20013;-62
2020/12/05 02:52:00;;;;;;;7.38;6.22;;;;;;;;;;5052921;28;20025;-63
2020/12/05 02:54:25;;;;;;;10.77;7.72;;;;;;;;;;5052843;28;20131;-63
2020/12/05 02:56:51;;;;;;;7.60;6.68;;;;;;;;;;5052943;28;20033;-63
2020/12/05 02:59:16;;;;;;;10.00;6.75;;;;;;;;;;5034912;28;20082;-63
2020/12/05 03:01:42;;;;;;;9.38;7.30;;;;;;;;;;5052835;28;20364;-63
2020/12/05 03:04:07;;;;;;;9.68;7.50;;;;;;;;;;5051089;28;20123;-63
2020/12/05 03:06:32;;;;;;;9.35;7.53;;;;;;;;;;5052792;28;20112;-62
2020/12/05 03:08:58;;;;;;;9.07;7.50;;;;;;;;;;5052880;28;20025;-62
2020/12/05 03:11:23;;;;;;;10.35;8.07;;;;;;;;;;5052820;28;20372;-62
2020/12/05 03:13:49;;;;;;;9.85;7.38;;;;;;;;;;5052798;28;20446;-62
2020/12/05 03:16:14;;;;;;;12.13;7.93;;;;;;;;;;5052734;28;20033;-62
2020/12/05 03:18:40;;;;;;;10.35;8.02;;;;;;;;;;5052730;28;20483;-62
2020/12/05 03:21:05;;;;;;;10.95;8.02;;;;;;;;;;5052798;28;20479;-62
2020/12/05 03:23:31;;;;;;;11.13;7.88;;;;;;;;;;5052668;28;20090;-63
2020/12/05 03:25:56;;;;;;;11.38;7.85;;;;;;;;;;5052504;28;20037;-63
2020/12/05 03:28:23;;;;;;;10.90;7.88;;;;;;;;;;5052148;28;20024;-63
2020/12/05 03:30:49;;;;;;;10.45;8.32;;;;;;;;;;5052674;28;20044;-64
2020/12/05 03:33:14;;;;;;;10.50;8.20;;;;;;;;;;5052502;28;20390;-64
2020/12/05 03:35:40;;;;;;;11.38;8.60;;;;;;;;;;5052534;28;20041;-64
2020/12/05 03:38:05;;;;;;;11.02;7.47;;;;;;;;;;5052602;28;20031;-63
2020/12/05 03:40:31;;;;;;;11.02;7.70;;;;;;;;;;5053150;28;20036;-64
2020/12/05 03:42:56;;;;;;;10.13;6.75;;;;;;;;;;5054964;28;20414;-64
2020/12/05 03:45:21;;;;;;;11.25;7.93;;;;;;;;;;5056238;28;20116;-63
2020/12/05 03:47:47;;;;;;;11.95;8.70;;;;;;;;;;5056090;28;20364;-63
2020/12/05 03:50:12;;;;;;;13.75;8.85;;;;;;;;;;5056183;28;20029;-63
2020/12/05 03:52:37;;;;;;;13.13;8.68;;;;;;;;;;5054854;28;20032;-64
2020/12/05 03:55:03;;;;;;;10.30;7.97;;;;;;;;;;5055911;28;20486;-64
2020/12/05 03:57:28;;;;;;;11.05;7.82;;;;;;;;;;5054690;28;20017;-64
2020/12/05 03:59:54;;;;;;;9.65;7.88;;;;;;;;;;5054321;28;20029;-64
2020/12/05 04:02:19;;;;;;;8.43;7.20;;;;;;;;;;5055866;28;20095;-63
2020/12/05 04:04:45;;;;;;;10.48;8.07;;;;;;;;;;5055280;28;20052;-63
2020/12/05 04:07:10;;;;;;;11.65;8.60;;;;;;;;;;5055756;28;20025;-63
2020/12/05 04:09:35;;;;;;;10.27;7.75;;;;;;;;;;5055578;28;20468;-64
2020/12/05 04:12:01;;;;;;;11.93;8.30;;;;;;;;;;5055551;28;20013;-63
2020/12/05 04:14:26;;;;;;;11.48;8.57;;;;;;;;;;5055797;28;20047;-63
2020/12/05 04:16:52;;;;;;;11.00;8.20;;;;;;;;;;5054337;28;20024;-63
2020/12/05 04:19:17;;;;;;;15.88;9.60;;;;;;;;;;5055380;28;20119;-63
2020/12/05 04:21:43;;;;;;;17.40;10.00;;;;;;;;;;5055283;28;20048;-64
2020/12/05 04:24:08;;;;;;;14.55;9.27;;;;;;;;;;5055510;28;20079;-64
2020/12/05 04:26:33;;;;;;;10.05;8.05;;;;;;;;;;5054198;28;20482;-64
2020/12/05 04:28:59;;;;;;;9.13;7.47;;;;;;;;;;5055300;28;20036;-64
2020/12/05 04:31:24;;;;;;;10.95;8.75;;;;;;;;;;5055234;28;20024;-64
2020/12/05 04:33:50;;;;;;;11.57;9.95;;;;;;;;;;5055145;28;20438;-64
2020/12/05 04:36:15;;;;;;;12.40;9.45;;;;;;;;;;5055382;28;20074;-62
2020/12/05 04:38:41;;;;;;;9.73;8.18;;;;;;;;;;5054974;28;20040;-64
2020/12/05 04:41:06;;;;;;;9.13;7.88;;;;;;;;;;5054998;28;20071;-64
2020/12/05 04:43:33;;;;;;;10.55;7.88;;;;;;;;;;5053733;28;20048;-62
2020/12/05 04:46:00;;;;;;;11.60;7.68;;;;;;;;;;5055064;28;20013;-62
2020/12/05 04:48:25;;;;;;;10.18;7.63;;;;;;;;;;5055007;28;20037;-62
2020/12/05 04:50:53;;;;;;;14.30;8.50;;;;;;;;;;5053761;28;20023;-62
2020/12/05 04:53:19;;;;;;;11.63;8.90;;;;;;;;;;5053899;28;20488;-62
2020/12/05 04:55:45;;;;;;;10.13;7.88;;;;;;;;;;5054665;28;20106;-62
2020/12/05 04:58:16;;;;;;;9.02;7.80;;;;;;;;;;5054669;28;20120;-62
2020/12/05 05:00:43;;;;;;;8.05;7.25;;;;;;;;;;5054638;28;20021;-63
2020/12/05 05:03:09;;;;;;;8.07;6.80;;;;;;;;;;5054368;28;20013;-63
2020/12/05 05:05:35;;;;;;;9.77;8.35;;;;;;;;;;5054717;28;20399;-63
2020/12/05 05:08:00;;;;;;;10.25;8.95;;;;;;;;;;5054664;28;20028;-63
2020/12/05 05:10:34;;;;;;;50.28;27.08;;;;;;;;;;5053294;28;20035;-63
2020/12/05 05:13:04;;;;;;;22.35;16.48;;;;;;;;;;5053491;28;20474;-63
2020/12/05 05:15:30;;;;;;;13.90;9.15;;;;;;;;;;5054506;28;20107;-63
2020/12/05 05:17:56;;;;;;;8.60;7.78;;;;;;;;;;5053405;28;20056;-63
2020/12/05 05:20:22;;;;;;;10.80;7.75;;;;;;;;;;5054268;28;20052;-67
2020/12/05 05:23:06;;;;;;;9.00;7.97;;;;;;;;;;5054376;28;20360;-64
2020/12/05 05:25:46;;;;;;;10.95;8.63;;;;;;;;;;5054470;28;20091;-64
2020/12/05 05:28:16;;;;;;;21.75;12.07;;;;;;;;;;5054430;28;20415;-64
2020/12/05 05:31:07;;;;;;;27.75;14.10;;;;;;;;;;5054171;28;20029;-64
2020/12/05 05:33:38;;;;;;;18.77;11.45;;;;;;;;;;5054287;28;20086;-64
2020/12/05 05:36:33;;;;;;;23.58;12.20;;;;;;;;;;5053007;28;20479;-64
2020/12/05 05:38:59;;;;;;;17.92;9.93;;;;;;;;;;5049043;28;20041;-64
2020/12/05 05:41:25;;;;;;;14.57;9.05;;;;;;;;;;5054020;28;20384;-64
2020/12/05 05:43:55;;;;;;;13.55;9.52;;;;;;;;;;5052710;28;20032;-64
2020/12/05 05:46:25;;;;;;;11.38;8.45;;;;;;;;;;5054075;28;20033;-64
2020/12/05 05:48:51;;;;;;;11.82;8.85;;;;;;;;;;5053727;28;20032;-64
2020/12/05 05:51:16;;;;;;;9.60;8.45;;;;;;;;;;5053778;28;20021;-62
2020/12/05 05:53:42;;;;;;;14.07;9.90;;;;;;;;;;5053589;28;20064;-63
2020/12/05 05:56:10;;;;;;;11.98;9.25;;;;;;;;;;5053615;28;20021;-63
2020/12/05 05:58:37;;;;;;;13.40;9.90;;;;;;;;;;5053578;28;20029;-63
2020/12/05 06:01:02;;;;;;;12.48;9.13;;;;;;;;;;5053551;28;20055;-63
2020/12/05 06:03:28;;;;;;;17.30;11.25;;;;;;;;;;5052806;28;20040;-63
2020/12/05 06:05:54;;;;;;;14.15;9.80;;;;;;;;;;5053594;28;20095;-63
2020/12/05 06:08:21;;;;;;;12.35;8.63;;;;;;;;;;5053555;28;20043;-63
2020/12/05 06:10:48;;;;;;;9.52;7.82;;;;;;;;;;5053539;28;20047;-63
2020/12/05 06:13:17;;;;;;;11.50;8.57;;;;;;;;;;5053259;28;20065;-63
2020/12/05 06:15:43;;;;;;;8.98;7.57;;;;;;;;;;5052173;28;20064;-65
2020/12/05 06:18:08;;;;;;;9.63;8.10;;;;;;;;;;5053478;28;20441;-63
2020/12/05 06:20:37;;;;;;;8.70;7.57;;;;;;;;;;5053233;28;20016;-63
2020/12/05 06:23:06;;;;;;;10.25;8.32;;;;;;;;;;5052001;28;20028;-62
2020/12/05 06:25:32;;;;;;;10.88;7.90;;;;;;;;;;5053378;28;20023;-64
2020/12/05 06:28:01;;;;;;;10.55;8.38;;;;;;;;;;5053262;28;20025;-64
2020/12/05 06:30:27;;;;;;;9.15;7.38;;;;;;;;;;5053166;28;20021;-64
2020/12/05 06:32:55;;;;;;;9.27;8.00;;;;;;;;;;5052063;28;20032;-63
2020/12/05 06:35:24;;;;;;;9.60;7.95;;;;;;;;;;5051912;28;20028;-64
2020/12/05 06:37:50;;;;;;;10.48;8.32;;;;;;;;;;5050598;28;20086;-64
2020/12/05 06:40:16;;;;;;;10.75;7.82;;;;;;;;;;5046224;28;20468;-64
2020/12/05 06:42:42;;;;;;;8.18;7.18;;;;;;;;;;5052001;28;20070;-64
2020/12/05 06:45:08;;;;;;;9.73;8.10;;;;;;;;;;5051957;28;20021;-64
2020/12/05 06:47:33;;;;;;;9.18;7.63;;;;;;;;;;5052025;28;20048;-64
2020/12/05 06:49:59;;;;;;;9.15;7.95;;;;;;;;;;5051639;28;20460;-64
2020/12/05 06:52:24;;;;;;;9.68;7.93;;;;;;;;;;5051994;28;20124;-64
2020/12/05 06:54:50;;;;;;;10.80;8.00;;;;;;;;;;5051999;28;20028;-64
2020/12/05 06:57:15;;;;;;;10.75;8.40;;;;;;;;;;5050832;28;20068;-64
2020/12/05 06:59:41;;;;;;;9.55;7.80;;;;;;;;;;5051619;28;20036;-64
2020/12/05 07:02:42;;;;;;;9.40;8.18;;;;;;;;;;5052030;28;20364;-64
2020/12/05 07:05:13;;;;;;;10.30;8.43;;;;;;;;;;4993258;28;20049;-64
2020/12/05 07:07:39;;;;;;;13.30;9.10;;;;;;;;;;5044942;28;20095;-64
2020/12/05 07:10:05;;;;;;;14.50;9.02;;;;;;;;;;5051442;28;20021;-64
2020/12/05 07:12:41;;;;;;;8.95;7.60;;;;;;;;;;5051862;28;20033;-64
2020/12/05 07:15:18;;;;;;;12.32;9.18;;;;;;;;;;5051893;28;20029;-64
2020/12/05 07:17:44;;;;;;;16.05;10.63;;;;;;;;;;5055484;28;20033;-64
2020/12/05 07:20:09;;;;;;;15.43;10.70;;;;;;;;;;5055459;28;20444;-64
2020/12/05 07:22:35;;;;;;;18.73;13.38;;;;;;;;;;5055589;28;20028;-64
2020/12/05 07:25:00;;;;;;;12.48;9.15;;;;;;;;;;5055582;28;20025;-64
2020/12/05 07:27:26;;;;;;;11.90;9.40;;;;;;;;;;5055458;28;20024;-64
2020/12/05 07:29:54;;;;;;;15.18;9.98;;;;;;;;;;5055176;28;20078;-64
2020/12/05 07:32:20;;;;;;;16.40;9.10;;;;;;;;;;5055405;28;20060;-64
2020/12/05 07:34:46;;;;;;;14.07;10.20;;;;;;;;;;5055305;28;20063;-64
2020/12/05 07:37:23;;;;;;;11.40;8.95;;;;;;;;;;5054430;28;20364;-64
2020/12/05 07:39:49;;;;;;;16.40;10.65;;;;;;;;;;5054969;28;20025;-63
2020/12/05 07:42:14;;;;;;;18.15;13.10;;;;;;;;;;5055151;28;20017;-63
2020/12/05 07:44:40;;;;;;;22.00;12.27;;;;;;;;;;5055213;28;20485;-63
2020/12/05 07:47:15;;;;;;;23.80;16.27;;;;;;;;;;5055232;28;20031;-63
2020/12/05 07:49:50;;;;;;;28.73;18.90;;;;;;;;;;5054882;28;20044;-63
2020/12/05 07:52:17;;;;;;;40.60;20.38;;;;;;;;;;5055253;28;20029;-65
2020/12/05 07:55:09;;;;;;;58.88;30.92;;;;;;;;;;5054961;28;20083;-65
2020/12/05 07:57:35;;;;;;;43.40;21.23;;;;;;;;;;5053968;28;20049;-64
2020/12/05 08:00:07;;;;;;;144.45;93.43;;;;;;;;;;5053267;28;20394;-64
2020/12/05 08:02:35;;;;;;;170.40;107.32;;;;;;;;;;5054630;28;20036;-62
2020/12/05 08:05:10;;;;;;;132.55;85.32;;;;;;;;;;5054572;28;20064;-64
2020/12/05 08:07:42;;;;;;;33.10;24.75;;;;;;;;;;5053472;28;20035;-68
2020/12/05 08:10:15;;;;;;;27.75;19.13;;;;;;;;;;5053266;28;20032;-69
2020/12/05 08:12:44;;;;;;;30.05;20.90;;;;;;;;;;5054753;28;20106;-69
2020/12/05 08:15:13;;;;;;;17.25;14.65;;;;;;;;;;5053222;28;20024;-66
2020/12/05 08:17:39;;;;;;;11.50;10.10;;;;;;;;;;5053202;28;20029;-68
2020/12/05 08:20:05;;;;;;;12.48;9.35;;;;;;;;;;5054143;28;20103;-66
2020/12/05 08:22:31;;;;;;;12.40;10.40;;;;;;;;;;5054747;28;20410;-67
2020/12/05 08:24:57;;;;;;;17.83;12.40;;;;;;;;;;5054397;28;20379;-67
2020/12/05 08:27:23;;;;;;;21.58;12.70;;;;;;;;;;5054378;28;20029;-67
2020/12/05 08:29:49;;;;;;;27.58;15.48;;;;;;;;;;5054221;28;20028;-67
2020/12/05 08:32:18;;;;;;;16.00;11.20;;;;;;;;;;5054305;28;20036;-68
2020/12/05 08:34:43;;;;;;;14.60;9.88;;;;;;;;;;5050389;28;20035;-68
2020/12/05 08:37:15;;;;;;;22.70;14.52;;;;;;;;;;5034103;28;20037;-67
2020/12/05 08:39:41;;;;;;;37.10;22.00;;;;;;;;;;5032443;28;20415;-67
2020/12/05 08:42:07;;;;;;;38.88;21.30;;;;;;;;;;5034446;28;20032;-67
2020/12/05 08:44:32;;;;;;;24.60;14.95;;;;;;;;;;5033654;28;20067;-67
2020/12/05 08:47:07;;;;;;;16.30;11.93;;;;;;;;;;5033213;28;20029;-67
2020/12/05 08:49:43;;;;;;;28.70;17.05;;;;;;;;;;5033952;28;20025;-67
2020/12/05 08:52:09;;;;;;;20.05;13.38;;;;;;;;;;5034041;28;20139;-67
2020/12/05 08:54:48;;;;;;;13.57;10.05;;;;;;;;;;5034171;28;20083;-67
2020/12/05 08:57:14;;;;;;;9.30;8.30;;;;;;;;;;5033894;28;20032;-67
2020/12/05 08:59:40;;;;;;;9.18;8.02;;;;;;;;;;5033537;28;20022;-66
2020/12/05 09:02:05;;;;;;;10.15;8.30;;;;;;;;;;5033860;28;20021;-67
2020/12/05 09:04:32;;;;;;;22.13;10.68;;;;;;;;;;5033615;28;20049;-67
2020/12/05 09:07:06;;;;;;;15.55;9.35;;;;;;;;;;5033739;28;20395;-67
2020/12/05 09:09:32;;;;;;;18.35;9.82;;;;;;;;;;5033386;28;20034;-67
2020/12/05 09:12:02;;;;;;;17.58;10.10;;;;;;;;;;5040082;28;20504;-67
2020/12/05 09:14:28;;;;;;;13.95;9.57;;;;;;;;;;5048940;28;20036;-66
2020/12/05 09:16:53;;;;;;;13.20;9.45;;;;;;;;;;5044548;28;20041;-67
2020/12/05 09:19:22;;;;;;;14.27;9.95;;;;;;;;;;5048515;28;20025;-67
2020/12/05 09:21:48;;;;;;;15.65;10.38;;;;;;;;;;5053432;28;20419;-67
2020/12/05 09:24:14;;;;;;;17.48;12.32;;;;;;;;;;5049280;28;20029;-67
2020/12/05 09:26:58;;;;;;;26.48;15.10;;;;;;;;;;5054124;28;20028;-67
2020/12/05 09:29:23;;;;;;;26.23;15.73;;;;;;;;;;5053621;28;20033;-67
2020/12/05 09:31:51;;;;;;;35.85;17.50;;;;;;;;;;5044939;28;20017;-67
2020/12/05 09:34:29;;;;;;;19.65;12.48;;;;;;;;;;5033751;28;20498;-67
2020/12/05 09:36:55;;;;;;;22.90;13.27;;;;;;;;;;5035467;28;20036;-63
2020/12/05 09:39:20;;;;;;;28.83;15.63;;;;;;;;;;5041507;28;20111;-62
2020/12/05 09:41:46;;;;;;;18.30;12.63;;;;;;;;;;5049502;28;20103;-62
2020/12/05 09:44:11;;;;;;;23.55;14.85;;;;;;;;;;5034301;28;20021;-62
2020/12/05 09:46:37;;;;;;;42.03;21.17;;;;;;;;;;5052803;28;20036;-62
2020/12/05 09:49:02;;;;;;;51.80;24.75;;;;;;;;;;5046915;28;20079;-63
2020/12/05 09:51:28;;;;;;;110.45;41.92;;;;;;;;;;5039943;28;20369;-66
2020/12/05 09:53:54;;;;;;;92.78;35.65;;;;;;;;;;5044397;28;20036;-63
2020/12/05 09:56:20;;;;;;;43.88;19.92;;;;;;;;;;5053104;28;20082;-62
2020/12/05 09:58:46;;;;;;;62.22;26.45;;;;;;;;;;5053190;28;20025;-62
2020/12/05 10:01:11;;;;;;;24.50;13.98;;;;;;;;;;5044538;28;20078;-62
2020/12/05 10:03:37;;;;;;;19.63;12.75;;;;;;;;;;5038143;28;20045;-62
2020/12/05 10:06:03;;;;;;;21.55;12.55;;;;;;;;;;5041441;28;20028;-61
2020/12/05 10:08:28;;;;;;;19.50;12.57;;;;;;;;;;5046983;28;20025;-61
2020/12/05 10:10:54;;;;;;;14.85;10.40;;;;;;;;;;5052656;28;20037;-63
2020/12/05 10:13:19;;;;;;;16.00;11.02;;;;;;;;;;5052958;28;20020;-62
2020/12/05 10:15:44;;;;;;;13.30;9.65;;;;;;;;;;5051879;28;20184;-62
2020/12/05 10:18:10;;;;;;;14.65;10.45;;;;;;;;;;5052823;28;20079;-62
2020/12/05 10:20:35;;;;;;;20.98;12.77;;;;;;;;;;5051510;28;20032;-62
2020/12/05 10:23:01;;;;;;;21.58;12.70;;;;;;;;;;5052848;28;20024;-53
2020/12/05 10:25:27;;;;;;;14.77;9.70;;;;;;;;;;5051563;28;20040;-66
2020/12/05 10:27:53;;;;;;;12.88;9.45;;;;;;;;;;5052861;28;20024;-62
2020/12/05 10:30:18;;;;;;;11.38;8.90;;;;;;;;;;5052844;28;20098;-62
2020/12/05 10:32:44;;;;;;;10.82;8.35;;;;;;;;;;5053063;28;20017;-65
2020/12/05 10:35:10;;;;;;;11.27;8.73;;;;;;;;;;5052747;28;20040;-62
2020/12/05 10:37:35;;;;;;;10.73;8.02;;;;;;;;;;5052487;28;20032;-62
2020/12/05 10:40:01;;;;;;;12.90;8.90;;;;;;;;;;5051250;28;20074;-63
2020/12/05 10:42:26;;;;;;;14.98;9.05;;;;;;;;;;5052237;28;20021;-63
2020/12/05 10:44:51;;;;;;;14.13;8.95;;;;;;;;;;5052727;28;20033;-62
2020/12/05 10:47:17;;;;;;;13.32;8.90;;;;;;;;;;5052565;28;20013;-62
2020/12/05 10:49:43;;;;;;;11.10;7.72;;;;;;;;;;5053318;28;20033;-62
2020/12/05 10:52:08;;;;;;;10.15;7.15;;;;;;;;;;5056898;28;20045;-62
2020/12/05 10:54:34;;;;;;;9.55;7.65;;;;;;;;;;5056942;28;20090;-62
2020/12/05 10:56:59;;;;;;;9.40;7.03;;;;;;;;;;5055533;28;20017;-63
2020/12/05 10:59:24;;;;;;;11.15;8.07;;;;;;;;;;5056666;28;20391;-63
2020/12/05 11:01:50;;;;;;;12.52;9.23;;;;;;;;;;5045251;28;20021;-62
2020/12/05 11:04:16;;;;;;;10.57;7.90;;;;;;;;;;5054644;28;20040;-62
2020/12/05 11:06:41;;;;;;;17.67;10.32;;;;;;;;;;5037608;28;20022;-62
2020/12/05 11:09:07;;;;;;;26.50;16.88;;;;;;;;;;5039357;28;20079;-62
2020/12/05 11:11:32;;;;;;;31.00;16.50;;;;;;;;;;5049256;28;20348;-62
2020/12/05 11:13:58;;;;;;;35.88;17.63;;;;;;;;;;5056269;28;20508;-62
2020/12/05 11:16:23;;;;;;;55.97;32.55;;;;;;;;;;5056381;28;20471;-62
2020/12/05 11:18:50;;;;;;;23.38;19.05;;;;;;;;;;5054969;28;20024;-62
2020/12/05 11:21:15;;;;;;;19.27;15.48;;;;;;;;;;5056346;28;20021;-62
2020/12/05 11:23:41;;;;;;;12.38;10.20;;;;;;;;;;5056178;28;20503;-62
2020/12/05 11:26:06;;;;;;;13.43;9.93;;;;;;;;;;5049690;28;20075;-62
2020/12/05 11:28:33;;;;;;;14.25;10.35;;;;;;;;;;5045093;28;20025;-62
2020/12/05 11:30:58;;;;;;;18.00;9.55;;;;;;;;;;5043692;28;20562;-62
2020/12/05 11:33:24;;;;;;;29.67;15.00;;;;;;;;;;5036130;28;20116;-62
2020/12/05 11:35:51;;;;;;;34.60;19.88;;;;;;;;;;5039767;28;20036;-62
2020/12/05 11:38:17;;;;;;;35.15;20.70;;;;;;;;;;5042436;28;20034;-62
2020/12/05 11:40:42;;;;;;;30.90;18.88;;;;;;;;;;5043577;28;20044;-63
2020/12/05 11:43:08;;;;;;;27.45;17.05;;;;;;;;;;5042467;28;20029;-62
2020/12/05 11:45:33;;;;;;;26.98;18.35;;;;;;;;;;5049542;28;20345;-63
2020/12/05 11:47:59;;;;;;;29.55;18.45;;;;;;;;;;5053294;28;20029;-63
2020/12/05 11:50:24;;;;;;;26.38;16.88;;;;;;;;;;5049243;28;20057;-63
2020/12/05 11:52:50;;;;;;;29.65;18.00;;;;;;;;;;5036371;28;20080;-63
2020/12/05 11:55:16;;;;;;;42.78;25.63;;;;;;;;;;5034236;28;20468;-63
2020/12/05 11:57:41;;;;;;;40.03;24.33;;;;;;;;;;5045572;28;20463;-67
2020/12/05 12:00:07;;;;;;;25.20;17.38;;;;;;;;;;5054933;28;20017;-61
2020/12/05 12:02:37;;;;;;;17.23;11.77;;;;;;;;;;5052626;28;20098;-63
2020/12/05 12:05:03;;;;;;;20.13;13.25;;;;;;;;;;5055396;28;20045;-66
2020/12/05 12:07:31;;;;;;;15.50;11.30;;;;;;;;;;5049161;28;20029;-65
2020/12/05 12:09:56;;;;;;;21.05;15.07;;;;;;;;;;5035198;28;20033;-65
2020/12/05 12:12:26;;;;;;;21.35;14.88;;;;;;;;;;5035327;28;20010;-64
2020/12/05 12:14:51;;;;;;;20.23;13.07;;;;;;;;;;5035283;28;20033;-64
2020/12/05 12:17:19;;;;;;;17.15;11.00;;;;;;;;;;5035281;28;20523;-64
2020/12/05 12:19:44;;;;;;;16.45;10.23;;;;;;;;;;5038787;28;20182;-64
2020/12/05 12:22:09;;;;;;;14.43;9.27;;;;;;;;;;5055002;28;20088;-62
2020/12/05 12:24:35;;;;;;;14.63;9.90;;;;;;;;;;5054991;28;20029;-63
2020/12/05 12:27:00;;;;;;;26.83;17.60;;;;;;;;;;5054711;28;20017;-63
2020/12/05 12:29:26;;;;;;;14.65;10.57;;;;;;;;;;5054948;28;20025;-63
2020/12/05 12:31:53;;;;;;;16.90;13.02;;;;;;;;;;5055064;28;20032;-63
2020/12/05 12:34:18;;;;;;;19.08;14.13;;;;;;;;;;5054173;28;20029;-63
2020/12/05 12:36:44;;;;;;;22.17;12.77;;;;;;;;;;5054861;28;20029;-62
2020/12/05 12:39:09;;;;;;;25.33;14.80;;;;;;;;;;5054254;28;20603;-62
2020/12/05 12:41:35;;;;;;;20.27;13.00;;;;;;;;;;5054051;28;20017;-63
2020/12/05 12:44:01;;;;;;;19.73;14.35;;;;;;;;;;5053642;28;20112;-63
2020/12/05 12:46:26;;;;;;;20.63;13.27;;;;;;;;;;5053190;28;20013;-63
2020/12/05 12:48:52;;;;;;;25.88;14.82;;;;;;;;;;5054427;28;20032;-63
2020/12/05 12:51:27;;;;;;;29.27;16.67;;;;;;;;;;5054587;28;20356;-63
2020/12/05 12:53:53;;;;;;;29.60;17.25;;;;;;;;;;5054779;28;20452;-63
2020/12/05 12:56:23;;;;;;;35.92;20.73;;;;;;;;;;5054256;28;20029;-63
2020/12/05 12:58:50;;;;;;;;;;;;;;;;;;5054574;28;20033;-63
2020/12/05 13:01:16;;;;;;;33.22;19.98;;;;;;;;;;5054311;28;19904;-64
2020/12/05 13:03:42;;;;;;;24.83;15.90;;;;;;;;;;5054271;28;20037;-64
2020/12/05 13:06:12;;;;;;;18.00;12.60;;;;;;;;;;5054507;28;20028;-64
2020/12/05 13:08:38;;;;;;;21.42;13.88;;;;;;;;;;5054104;28;20037;-64
2020/12/05 13:11:03;;;;;;;17.58;11.32;;;;;;;;;;5054093;28;20016;-64
2020/12/05 13:13:29;;;;;;;19.88;12.35;;;;;;;;;;5053361;28;20025;-63
2020/12/05 13:15:54;;;;;;;20.63;13.95;;;;;;;;;;5054134;28;20027;-63
2020/12/05 13:18:20;;;;;;;23.20;14.73;;;;;;;;;;5053837;28;20029;-63
2020/12/05 13:20:45;;;;;;;18.70;12.23;;;;;;;;;;5053953;28;20033;-63
2020/12/05 13:23:11;;;;;;;21.38;12.57;;;;;;;;;;5052729;28;20044;-63
2020/12/05 13:25:37;;;;;;;20.58;12.88;;;;;;;;;;5053867;28;20040;-63
2020/12/05 13:28:05;;;;;;;21.58;13.60;;;;;;;;;;5053147;28;20021;-64
2020/12/05 13:30:30;;;;;;;25.08;13.85;;;;;;;;;;5053770;28;20037;-63
2020/12/05 13:32:57;;;;;;;20.00;12.18;;;;;;;;;;5053649;28;20032;-63
2020/12/05 13:35:22;;;;;;;28.98;16.08;;;;;;;;;;5052396;28;20021;-63
2020/12/05 13:37:48;;;;;;;31.38;16.77;;;;;;;;;;5053638;28;20119;-63
2020/12/05 13:40:13;;;;;;;43.58;20.70;;;;;;;;;;5053414;28;20467;-65
2020/12/05 13:42:39;;;;;;;42.67;18.63;;;;;;;;;;5053032;28;20037;-65
2020/12/05 13:45:05;;;;;;;47.63;20.42;;;;;;;;;;5053211;28;20025;-65
2020/12/05 13:47:30;;;;;;;46.25;19.88;;;;;;;;;;5053795;28;20070;-64
2020/12/05 13:49:57;;;;;;;41.15;19.83;;;;;;;;;;5053502;28;20158;-65
2020/12/05 13:52:22;;;;;;;29.75;15.63;;;;;;;;;;5052038;28;20472;-65
2020/12/05 13:54:48;;;;;;;25.48;15.93;;;;;;;;;;5053658;28;20150;-65
2020/12/05 13:57:13;;;;;;;23.63;15.20;;;;;;;;;;5052024;28;20044;-65
2020/12/05 13:59:40;;;;;;;21.50;15.02;;;;;;;;;;5053043;28;20364;-65
2020/12/05 14:02:06;;;;;;;21.48;14.85;;;;;;;;;;5053198;28;20472;-65
2020/12/05 14:04:32;;;;;;;18.05;12.70;;;;;;;;;;5052667;28;20048;-68
2020/12/05 14:07:00;;;;;;;40.63;23.17;;;;;;;;;;5053485;28;20025;-68
2020/12/05 14:09:25;;;;;;;23.10;15.18;;;;;;;;;;5051908;28;20033;-67
2020/12/05 14:11:51;;;;;;;43.35;23.33;;;;;;;;;;5053297;28;20033;-67
2020/12/05 14:14:17;;;;;;;34.85;20.27;;;;;;;;;;5053085;28;20071;-64
2020/12/05 14:16:43;;;;;;;49.47;26.05;;;;;;;;;;5053211;28;20032;-67
2020/12/05 14:19:09;;;;;;;48.72;24.02;;;;;;;;;;5052371;28;20025;-67
2020/12/05 14:21:34;;;;;;;36.78;18.48;;;;;;;;;;5051464;28;20036;-67
2020/12/05 14:24:00;;;;;;;37.33;17.67;;;;;;;;;;5052303;28;20029;-66